sensor_id;sensor_type;location;lat;lon;timestamp;pressure;altitude;pressure_sealevel;temperature;humidity
33191;BME280;19554;42.652;23.364;2022-09-29T00:00:49;93767.31;;;17.89;64.17
33191;BME280;19554;42.652;23.364;2022-09-29T00:03:15;93770.97;;;17.81;64.86
33191;BME280;19554;42.652;23.364;2022-09-29T00:05:52;93729.84;;;17.68;64.67
33191;BME280;19554;42.652;23.364;2022-09-29T00:08:19;93757.06;;;17.98;64.21
33191;BME280;19554;42.652;23.364;2022-09-29T00:10:45;93758.34;;;18.04;64.24
33191;BME280;19554;42.652;23.364;2022-09-29T00:13:12;93754.09;;;18.03;64.18
33191;BME280;19554;42.652;23.364;2022-09-29T00:15:38;93758.66;;;17.99;64.49
33191;BME280;19554;42.652;23.364;2022-09-29T00:18:03;93744.56;;;17.90;64.53
33191;BME280;19554;42.652;23.364;2022-09-29T00:20:29;93758.69;;;17.83;64.82
33191;BME280;19554;42.652;23.364;2022-09-29T00:22:55;93760.75;;;17.90;64.25
33191;BME280;19554;42.652;23.364;2022-09-29T00:25:20;93761.22;;;17.92;63.20
33191;BME280;19554;42.652;23.364;2022-09-29T00:27:47;93696.59;;;17.28;63.31
33191;BME280;19554;42.652;23.364;2022-09-29T00:30:12;93754.47;;;17.66;63.28
33191;BME280;19554;42.652;23.364;2022-09-29T00:32:38;93761.25;;;17.60;64.22
33191;BME280;19554;42.652;23.364;2022-09-29T00:35:04;93745.38;;;17.39;65.44
33191;BME280;19554;42.652;23.364;2022-09-29T00:37:31;93737.38;;;17.43;64.92
33191;BME280;19554;42.652;23.364;2022-09-29T00:39:56;93733.41;;;17.56;64.39
33191;BME280;19554;42.652;23.364;2022-09-29T00:42:22;93755.84;;;17.60;64.74
33191;BME280;19554;42.652;23.364;2022-09-29T00:47:40;93745.94;;;17.64;64.53
33191;BME280;19554;42.652;23.364;2022-09-29T00:50:16;93755.47;;;17.77;64.04
33191;BME280;19554;42.652;23.364;2022-09-29T00:52:46;93692.34;;;17.47;63.93
33191;BME280;19554;42.652;23.364;2022-09-29T00:57:44;93746.31;;;17.47;65.75
33191;BME280;19554;42.652;23.364;2022-09-29T01:00:12;93747.34;;;17.58;65.39
33191;BME280;19554;42.652;23.364;2022-09-29T01:02:41;93743.66;;;17.66;65.22
33191;BME280;19554;42.652;23.364;2022-09-29T01:05:10;93679.00;;;17.35;65.01
33191;BME280;19554;42.652;23.364;2022-09-29T01:07:38;93707.59;;;17.55;64.87
33191;BME280;19554;42.652;23.364;2022-09-29T01:10:04;93736.59;;;17.77;64.17
33191;BME280;19554;42.652;23.364;2022-09-29T01:12:31;93722.91;;;17.70;63.76
33191;BME280;19554;42.652;23.364;2022-09-29T01:14:56;93743.44;;;17.91;63.56
33191;BME280;19554;42.652;23.364;2022-09-29T01:17:22;93734.06;;;17.85;63.48
33191;BME280;19554;42.652;23.364;2022-09-29T01:28:17;93739.72;;;17.80;64.28
33191;BME280;19554;42.652;23.364;2022-09-29T01:31:11;93730.53;;;17.65;64.34
33191;BME280;19554;42.652;23.364;2022-09-29T01:45:17;93692.94;;;17.37;63.59
33191;BME280;19554;42.652;23.364;2022-09-29T01:47:38;93765.59;;;17.81;63.57
33191;BME280;19554;42.652;23.364;2022-09-29T01:50:12;93763.84;;;17.72;64.03
33191;BME280;19554;42.652;23.364;2022-09-29T01:52:46;93763.22;;;17.44;65.14
33191;BME280;19554;42.652;23.364;2022-09-29T01:55:18;93766.56;;;17.21;66.08
33191;BME280;19554;42.652;23.364;2022-09-29T01:58:06;93765.94;;;17.28;65.87
33191;BME280;19554;42.652;23.364;2022-09-29T02:00:38;93762.47;;;17.27;65.79
33191;BME280;19554;42.652;23.364;2022-09-29T02:05:45;93761.56;;;17.39;65.38
33191;BME280;19554;42.652;23.364;2022-09-29T02:11:04;93767.53;;;17.13;66.18
33191;BME280;19554;42.652;23.364;2022-09-29T02:13:33;93776.47;;;17.17;66.26
33191;BME280;19554;42.652;23.364;2022-09-29T02:16:01;93770.13;;;17.25;66.03
33191;BME280;19554;42.652;23.364;2022-09-29T02:18:33;93768.63;;;17.28;65.98
33191;BME280;19554;42.652;23.364;2022-09-29T02:21:01;93772.19;;;17.32;65.95
33191;BME280;19554;42.652;23.364;2022-09-29T02:23:27;93772.13;;;17.28;65.87
33191;BME280;19554;42.652;23.364;2022-09-29T02:25:53;93774.56;;;17.34;65.64
33191;BME280;19554;42.652;23.364;2022-09-29T02:28:22;93770.72;;;17.35;65.56
33191;BME280;19554;42.652;23.364;2022-09-29T02:30:51;93782.38;;;17.39;65.09
33191;BME280;19554;42.652;23.364;2022-09-29T02:33:21;93776.97;;;17.39;64.97
33191;BME280;19554;42.652;23.364;2022-09-29T02:36:03;93784.09;;;17.47;64.92
33191;BME280;19554;42.652;23.364;2022-09-29T02:38:43;93765.84;;;17.40;64.53
33191;BME280;19554;42.652;23.364;2022-09-29T02:41:21;93778.81;;;17.35;65.33
33191;BME280;19554;42.652;23.364;2022-09-29T02:52:25;93789.59;;;16.87;67.50
33191;BME280;19554;42.652;23.364;2022-09-29T02:55:03;93791.84;;;16.85;67.14
33191;BME280;19554;42.652;23.364;2022-09-29T02:57:41;93784.19;;;16.27;69.33
33191;BME280;19554;42.652;23.364;2022-09-29T03:00:11;93772.00;;;16.33;68.76
33191;BME280;19554;42.652;23.364;2022-09-29T03:02:39;93787.88;;;16.51;68.18
33191;BME280;19554;42.652;23.364;2022-09-29T03:05:08;93749.00;;;16.36;68.03
33191;BME280;19554;42.652;23.364;2022-09-29T03:07:35;93730.94;;;16.37;67.47
33191;BME280;19554;42.652;23.364;2022-09-29T03:10:01;93773.66;;;16.66;67.33
33191;BME280;19554;42.652;23.364;2022-09-29T03:12:27;93764.63;;;16.74;67.16
33191;BME280;19554;42.652;23.364;2022-09-29T03:14:52;93741.38;;;16.54;66.98
33191;BME280;19554;42.652;23.364;2022-09-29T03:17:18;93728.25;;;16.37;67.43
33191;BME280;19554;42.652;23.364;2022-09-29T03:19:43;93646.34;;;15.65;68.53
33191;BME280;19554;42.652;23.364;2022-09-29T03:22:08;93685.22;;;15.80;68.45
33191;BME280;19554;42.652;23.364;2022-09-29T03:24:34;93748.94;;;16.04;68.70
33191;BME280;19554;42.652;23.364;2022-09-29T03:27:00;93763.63;;;16.07;68.15
33191;BME280;19554;42.652;23.364;2022-09-29T03:29:25;93778.19;;;16.06;68.37
33191;BME280;19554;42.652;23.364;2022-09-29T03:31:51;93777.81;;;15.79;69.54
33191;BME280;19554;42.652;23.364;2022-09-29T03:34:16;93767.03;;;15.92;69.10
33191;BME280;19554;42.652;23.364;2022-09-29T03:36:42;93774.50;;;16.10;68.48
33191;BME280;19554;42.652;23.364;2022-09-29T03:39:07;93780.09;;;16.05;68.91
33191;BME280;19554;42.652;23.364;2022-09-29T03:41:33;93769.28;;;16.18;68.66
33191;BME280;19554;42.652;23.364;2022-09-29T03:43:58;93764.69;;;16.18;68.48
33191;BME280;19554;42.652;23.364;2022-09-29T03:46:24;93765.13;;;16.20;68.11
33191;BME280;19554;42.652;23.364;2022-09-29T03:48:50;93770.00;;;16.30;67.82
33191;BME280;19554;42.652;23.364;2022-09-29T03:51:15;93668.78;;;15.57;68.37
33191;BME280;19554;42.652;23.364;2022-09-29T03:53:40;93697.81;;;15.64;68.25
33191;BME280;19554;42.652;23.364;2022-09-29T03:56:06;93793.19;;;16.19;68.85
33191;BME280;19554;42.652;23.364;2022-09-29T03:58:32;93790.06;;;16.17;69.06
33191;BME280;19554;42.652;23.364;2022-09-29T04:00:57;93791.34;;;16.23;69.35
33191;BME280;19554;42.652;23.364;2022-09-29T04:03:22;93744.81;;;15.95;69.60
33191;BME280;19554;42.652;23.364;2022-09-29T04:05:48;93785.94;;;16.07;69.93
33191;BME280;19554;42.652;23.364;2022-09-29T04:08:14;93795.88;;;15.79;71.59
33191;BME280;19554;42.652;23.364;2022-09-29T04:10:39;93725.94;;;15.02;73.40
33191;BME280;19554;42.652;23.364;2022-09-29T04:13:06;93796.91;;;15.37;73.92
33191;BME280;19554;42.652;23.364;2022-09-29T04:15:32;93811.03;;;15.47;74.04
33191;BME280;19554;42.652;23.364;2022-09-29T04:17:57;93806.53;;;15.51;73.80
33191;BME280;19554;42.652;23.364;2022-09-29T04:20:23;93785.16;;;15.42;74.29
33191;BME280;19554;42.652;23.364;2022-09-29T04:22:49;93791.75;;;15.45;74.16
33191;BME280;19554;42.652;23.364;2022-09-29T04:25:15;93795.34;;;15.36;73.67
33191;BME280;19554;42.652;23.364;2022-09-29T04:27:40;93747.19;;;14.95;74.20
33191;BME280;19554;42.652;23.364;2022-09-29T04:30:06;93789.28;;;15.27;74.54
33191;BME280;19554;42.652;23.364;2022-09-29T04:32:32;93698.16;;;14.61;75.01
33191;BME280;19554;42.652;23.364;2022-09-29T04:34:57;93794.88;;;15.34;74.33
33191;BME280;19554;42.652;23.364;2022-09-29T04:37:23;93806.75;;;15.58;73.33
33191;BME280;19554;42.652;23.364;2022-09-29T04:39:48;93793.53;;;15.77;72.36
33191;BME280;19554;42.652;23.364;2022-09-29T04:42:15;93750.16;;;15.54;72.08
33191;BME280;19554;42.652;23.364;2022-09-29T04:44:40;93793.31;;;15.70;72.40
33191;BME280;19554;42.652;23.364;2022-09-29T04:47:05;93791.50;;;15.62;72.92
33191;BME280;19554;42.652;23.364;2022-09-29T04:49:31;93797.78;;;15.78;72.55
33191;BME280;19554;42.652;23.364;2022-09-29T04:51:56;93801.56;;;15.90;71.69
33191;BME280;19554;42.652;23.364;2022-09-29T04:54:22;93796.59;;;16.04;71.24
33191;BME280;19554;42.652;23.364;2022-09-29T04:56:48;93789.81;;;16.22;70.42
33191;BME280;19554;42.652;23.364;2022-09-29T04:59:13;93795.25;;;16.38;70.26
33191;BME280;19554;42.652;23.364;2022-09-29T05:01:39;93785.69;;;16.85;68.86
33191;BME280;19554;42.652;23.364;2022-09-29T05:04:04;93784.13;;;17.15;67.88
33191;BME280;19554;42.652;23.364;2022-09-29T05:06:30;93739.34;;;17.11;66.30
33191;BME280;19554;42.652;23.364;2022-09-29T05:08:55;93774.34;;;17.58;65.63
33191;BME280;19554;42.652;23.364;2022-09-29T05:11:21;93774.97;;;17.87;63.90
33191;BME280;19554;42.652;23.364;2022-09-29T05:13:49;93782.69;;;17.53;64.69
33191;BME280;19554;42.652;23.364;2022-09-29T05:16:15;93780.16;;;17.60;64.85
33191;BME280;19554;42.652;23.364;2022-09-29T05:18:41;93777.47;;;17.95;64.13
33191;BME280;19554;42.652;23.364;2022-09-29T05:21:07;93780.53;;;18.33;62.55
33191;BME280;19554;42.652;23.364;2022-09-29T05:23:33;93773.41;;;18.63;61.35
33191;BME280;19554;42.652;23.364;2022-09-29T05:26:00;93786.94;;;18.44;61.54
33191;BME280;19554;42.652;23.364;2022-09-29T05:28:26;93788.16;;;18.69;60.81
33191;BME280;19554;42.652;23.364;2022-09-29T05:30:51;93761.78;;;18.20;60.25
33191;BME280;19554;42.652;23.364;2022-09-29T05:33:17;93766.59;;;17.92;61.74
33191;BME280;19554;42.652;23.364;2022-09-29T05:35:42;93762.47;;;18.17;62.03
33191;BME280;19554;42.652;23.364;2022-09-29T05:38:07;93769.81;;;18.59;61.55
33191;BME280;19554;42.652;23.364;2022-09-29T05:40:34;93742.59;;;18.26;59.90
33191;BME280;19554;42.652;23.364;2022-09-29T05:43:01;93733.00;;;17.89;61.01
33191;BME280;19554;42.652;23.364;2022-09-29T05:45:27;93727.59;;;18.09;60.80
33191;BME280;19554;42.652;23.364;2022-09-29T05:47:52;93801.28;;;18.67;60.50
33191;BME280;19554;42.652;23.364;2022-09-29T05:50:18;93783.91;;;18.88;58.47
33191;BME280;19554;42.652;23.364;2022-09-29T05:52:44;93803.19;;;19.09;58.62
33191;BME280;19554;42.652;23.364;2022-09-29T05:55:13;93794.19;;;19.51;57.58
33191;BME280;19554;42.652;23.364;2022-09-29T05:57:39;93808.69;;;19.89;55.64
33191;BME280;19554;42.652;23.364;2022-09-29T06:00:06;93817.69;;;20.27;54.89
33191;BME280;19554;42.652;23.364;2022-09-29T06:02:32;93789.34;;;20.17;54.43
33191;BME280;19554;42.652;23.364;2022-09-29T06:04:58;93796.00;;;19.93;54.60
33191;BME280;19554;42.652;23.364;2022-09-29T06:07:24;93811.94;;;20.28;54.54
33191;BME280;19554;42.652;23.364;2022-09-29T06:09:49;93816.13;;;20.52;54.32
33191;BME280;19554;42.652;23.364;2022-09-29T06:12:15;93825.22;;;20.71;53.28
33191;BME280;19554;42.652;23.364;2022-09-29T06:14:40;93808.94;;;20.71;51.68
33191;BME280;19554;42.652;23.364;2022-09-29T06:17:05;93821.94;;;20.54;51.87
33191;BME280;19554;42.652;23.364;2022-09-29T06:19:31;93786.75;;;20.28;53.06
33191;BME280;19554;42.652;23.364;2022-09-29T06:21:56;93829.34;;;20.57;52.93
33191;BME280;19554;42.652;23.364;2022-09-29T06:24:22;93813.25;;;20.42;52.25
33191;BME280;19554;42.652;23.364;2022-09-29T06:26:47;93805.00;;;20.31;52.35
33191;BME280;19554;42.652;23.364;2022-09-29T06:29:12;93824.25;;;20.52;53.08
33191;BME280;19554;42.652;23.364;2022-09-29T06:31:39;93828.94;;;20.55;52.69
33191;BME280;19554;42.652;23.364;2022-09-29T06:34:05;93819.56;;;20.83;51.51
33191;BME280;19554;42.652;23.364;2022-09-29T06:36:34;93818.03;;;20.86;51.63
33191;BME280;19554;42.652;23.364;2022-09-29T06:39:19;93805.53;;;21.18;50.37
33191;BME280;19554;42.652;23.364;2022-09-29T06:41:45;93811.94;;;21.37;49.95
33191;BME280;19554;42.652;23.364;2022-09-29T06:44:18;93813.59;;;21.48;49.71
33191;BME280;19554;42.652;23.364;2022-09-29T06:46:44;93831.13;;;21.58;49.02
33191;BME280;19554;42.652;23.364;2022-09-29T06:49:12;93817.19;;;21.19;49.70
33191;BME280;19554;42.652;23.364;2022-09-29T06:51:39;93819.88;;;20.78;50.76
33191;BME280;19554;42.652;23.364;2022-09-29T06:54:05;93823.31;;;20.41;51.78
33191;BME280;19554;42.652;23.364;2022-09-29T06:56:31;93817.97;;;19.88;53.21
33191;BME280;19554;42.652;23.364;2022-09-29T06:58:56;93830.56;;;20.03;53.93
33191;BME280;19554;42.652;23.364;2022-09-29T07:01:21;93839.28;;;20.20;53.15
33191;BME280;19554;42.652;23.364;2022-09-29T07:03:47;93829.19;;;20.17;52.80
33191;BME280;19554;42.652;23.364;2022-09-29T07:06:12;93830.09;;;19.98;53.64
33191;BME280;19554;42.652;23.364;2022-09-29T07:08:38;93858.25;;;20.20;53.41
33191;BME280;19554;42.652;23.364;2022-09-29T07:11:08;93861.78;;;20.24;53.19
33191;BME280;19554;42.652;23.364;2022-09-29T07:13:34;93858.19;;;20.43;53.07
33191;BME280;19554;42.652;23.364;2022-09-29T07:16:11;93809.22;;;20.28;53.05
33191;BME280;19554;42.652;23.364;2022-09-29T07:18:40;93770.59;;;20.05;52.27
33191;BME280;19554;42.652;23.364;2022-09-29T07:21:07;93827.84;;;20.33;53.58
33191;BME280;19554;42.652;23.364;2022-09-29T07:23:37;93836.09;;;20.10;54.32
33191;BME280;19554;42.652;23.364;2022-09-29T07:26:04;93836.53;;;20.46;54.82
33191;BME280;19554;42.652;23.364;2022-09-29T07:28:30;93822.59;;;20.78;53.73
33191;BME280;19554;42.652;23.364;2022-09-29T07:30:59;93835.59;;;20.99;52.22
33191;BME280;19554;42.652;23.364;2022-09-29T07:33:25;93834.53;;;20.70;51.78
33191;BME280;19554;42.652;23.364;2022-09-29T07:35:52;93841.91;;;20.43;53.19
33191;BME280;19554;42.652;23.364;2022-09-29T07:38:17;93836.28;;;20.25;52.89
33191;BME280;19554;42.652;23.364;2022-09-29T07:40:42;93852.88;;;20.23;53.20
33191;BME280;19554;42.652;23.364;2022-09-29T07:43:08;93845.81;;;20.45;52.90
33191;BME280;19554;42.652;23.364;2022-09-29T07:45:34;93840.50;;;20.22;52.64
33191;BME280;19554;42.652;23.364;2022-09-29T07:47:59;93844.06;;;20.30;52.90
33191;BME280;19554;42.652;23.364;2022-09-29T07:50:25;93838.19;;;20.54;53.46
33191;BME280;19554;42.652;23.364;2022-09-29T07:52:50;93850.88;;;20.77;52.44
33191;BME280;19554;42.652;23.364;2022-09-29T07:55:16;93857.19;;;20.88;52.15
33191;BME280;19554;42.652;23.364;2022-09-29T07:57:41;93806.66;;;20.73;51.02
33191;BME280;19554;42.652;23.364;2022-09-29T08:00:07;93863.72;;;21.21;50.82
33191;BME280;19554;42.652;23.364;2022-09-29T08:02:33;93853.41;;;21.34;50.83
33191;BME280;19554;42.652;23.364;2022-09-29T08:04:58;93852.47;;;21.60;50.01
33191;BME280;19554;42.652;23.364;2022-09-29T08:07:23;93868.59;;;21.86;50.02
33191;BME280;19554;42.652;23.364;2022-09-29T08:09:49;93859.84;;;22.14;48.18
33191;BME280;19554;42.652;23.364;2022-09-29T08:12:14;93869.47;;;22.05;48.38
33191;BME280;19554;42.652;23.364;2022-09-29T08:14:39;93880.91;;;22.28;47.81
33191;BME280;19554;42.652;23.364;2022-09-29T08:17:05;93869.53;;;22.12;47.50
33191;BME280;19554;42.652;23.364;2022-09-29T08:19:30;93876.00;;;21.89;48.04
33191;BME280;19554;42.652;23.364;2022-09-29T08:21:55;93880.66;;;21.92;47.83
33191;BME280;19554;42.652;23.364;2022-09-29T08:24:21;93879.72;;;21.74;47.66
33191;BME280;19554;42.652;23.364;2022-09-29T08:26:46;93877.78;;;21.71;48.24
33191;BME280;19554;42.652;23.364;2022-09-29T08:29:12;93833.81;;;21.55;48.27
33191;BME280;19554;42.652;23.364;2022-09-29T08:31:38;93869.00;;;21.88;48.45
33191;BME280;19554;42.652;23.364;2022-09-29T08:34:03;93882.19;;;21.90;47.88
33191;BME280;19554;42.652;23.364;2022-09-29T08:36:28;93886.34;;;21.73;48.37
33191;BME280;19554;42.652;23.364;2022-09-29T08:38:55;93883.78;;;21.94;48.88
33191;BME280;19554;42.652;23.364;2022-09-29T08:44:38;93889.34;;;22.09;47.69
33191;BME280;19554;42.652;23.364;2022-09-29T08:50:00;93880.72;;;21.99;48.18
33191;BME280;19554;42.652;23.364;2022-09-29T08:52:29;93890.75;;;21.88;47.46
33191;BME280;19554;42.652;23.364;2022-09-29T08:55:02;93872.75;;;21.73;48.04
33191;BME280;19554;42.652;23.364;2022-09-29T08:57:31;93877.47;;;21.83;48.47
33191;BME280;19554;42.652;23.364;2022-09-29T08:59:58;93881.28;;;21.71;48.68
33191;BME280;19554;42.652;23.364;2022-09-29T09:26:57;93813.47;;;20.93;48.16
33191;BME280;19554;42.652;23.364;2022-09-29T09:29:28;93879.22;;;21.17;48.70
33191;BME280;19554;42.652;23.364;2022-09-29T09:32:00;93885.50;;;21.28;49.06
33191;BME280;19554;42.652;23.364;2022-09-29T09:34:43;93866.09;;;21.26;49.01
33191;BME280;19554;42.652;23.364;2022-09-29T09:37:16;93863.31;;;21.60;47.66
33191;BME280;19554;42.652;23.364;2022-09-29T09:42:19;93865.25;;;22.11;45.46
33191;BME280;19554;42.652;23.364;2022-09-29T09:44:49;93827.97;;;22.11;44.43
33191;BME280;19554;42.652;23.364;2022-09-29T09:47:27;93862.44;;;22.59;45.06
33191;BME280;19554;42.652;23.364;2022-09-29T09:52:38;93868.06;;;22.94;43.26
33191;BME280;19554;42.652;23.364;2022-09-29T09:55:14;93871.91;;;22.93;43.23
33191;BME280;19554;42.652;23.364;2022-09-29T10:00:25;93863.94;;;22.53;43.88
33191;BME280;19554;42.652;23.364;2022-09-29T10:02:54;93867.91;;;22.66;43.62
33191;BME280;19554;42.652;23.364;2022-09-29T10:05:22;93874.19;;;22.81;42.33
33191;BME280;19554;42.652;23.364;2022-09-29T10:07:50;93859.50;;;23.00;42.48
33191;BME280;19554;42.652;23.364;2022-09-29T10:10:21;93850.97;;;23.08;41.09
33191;BME280;19554;42.652;23.364;2022-09-29T10:13:07;93869.56;;;22.88;41.21
33191;BME280;19554;42.652;23.364;2022-09-29T10:18:11;93865.56;;;22.61;41.05
33191;BME280;19554;42.652;23.364;2022-09-29T10:20:38;93866.66;;;22.53;41.19
33191;BME280;19554;42.652;23.364;2022-09-29T10:23:32;93870.47;;;22.30;41.24
33191;BME280;19554;42.652;23.364;2022-09-29T10:26:12;93870.78;;;22.21;41.39
33191;BME280;19554;42.652;23.364;2022-09-29T10:29:00;93869.16;;;22.13;41.75
33191;BME280;19554;42.652;23.364;2022-09-29T10:31:28;93869.09;;;22.03;42.09
33191;BME280;19554;42.652;23.364;2022-09-29T10:37:25;93894.16;;;22.33;40.91
33191;BME280;19554;42.652;23.364;2022-09-29T10:42:39;93880.72;;;22.62;40.03
33191;BME280;19554;42.652;23.364;2022-09-29T10:45:15;93883.09;;;22.67;39.88
33191;BME280;19554;42.652;23.364;2022-09-29T10:47:45;93871.03;;;22.64;40.04
33191;BME280;19554;42.652;23.364;2022-09-29T10:50:17;93866.34;;;22.65;38.91
33191;BME280;19554;42.652;23.364;2022-09-29T10:52:55;93865.94;;;22.63;39.18
33191;BME280;19554;42.652;23.364;2022-09-29T10:55:26;93858.50;;;22.53;39.35
33191;BME280;19554;42.652;23.364;2022-09-29T10:57:56;93822.69;;;22.29;39.49
33191;BME280;19554;42.652;23.364;2022-09-29T11:00:32;93852.31;;;22.52;40.08
33191;BME280;19554;42.652;23.364;2022-09-29T11:05:30;93856.66;;;22.71;40.33
33191;BME280;19554;42.652;23.364;2022-09-29T11:07:56;93854.31;;;22.69;40.30
33191;BME280;19554;42.652;23.364;2022-09-29T11:10:35;93848.53;;;22.75;40.16
33191;BME280;19554;42.652;23.364;2022-09-29T11:15:48;93849.31;;;22.82;40.64
33191;BME280;19554;42.652;23.364;2022-09-29T11:18:26;93843.88;;;22.82;40.38
33191;BME280;19554;42.652;23.364;2022-09-29T11:21:46;93842.31;;;22.81;40.99
33191;BME280;19554;42.652;23.364;2022-09-29T11:24:00;93846.97;;;22.77;40.66
33191;BME280;19554;42.652;23.364;2022-09-29T11:43:53;93822.47;;;22.74;39.86
33191;BME280;19554;42.652;23.364;2022-09-29T11:46:26;93831.44;;;22.81;39.69
33191;BME280;19554;42.652;23.364;2022-09-29T12:00:00;93829.06;;;22.69;38.64
33191;BME280;19554;42.652;23.364;2022-09-29T12:05:24;93820.56;;;22.81;38.80
33191;BME280;19554;42.652;23.364;2022-09-29T12:16:24;93818.31;;;23.05;38.75
33191;BME280;19554;42.652;23.364;2022-09-29T12:19:02;93821.03;;;23.12;38.42
33191;BME280;19554;42.652;23.364;2022-09-29T12:21:39;93809.78;;;23.24;37.68
33191;BME280;19554;42.652;23.364;2022-09-29T12:24:09;93822.25;;;23.36;37.52
33191;BME280;19554;42.652;23.364;2022-09-29T12:26:37;93812.91;;;23.51;36.84
33191;BME280;19554;42.652;23.364;2022-09-29T12:29:27;93821.50;;;23.71;35.96
33191;BME280;19554;42.652;23.364;2022-09-29T12:31:57;93817.59;;;23.76;35.97
33191;BME280;19554;42.652;23.364;2022-09-29T12:34:54;93820.31;;;23.86;36.32
33191;BME280;19554;42.652;23.364;2022-09-29T12:37:30;93826.91;;;23.93;35.43
33191;BME280;19554;42.652;23.364;2022-09-29T12:43:11;93834.69;;;24.05;35.30
33191;BME280;19554;42.652;23.364;2022-09-29T12:48:37;93826.88;;;24.21;35.29
33191;BME280;19554;42.652;23.364;2022-09-29T12:56:21;93820.63;;;24.31;35.22
33191;BME280;19554;42.652;23.364;2022-09-29T12:58:56;93821.38;;;24.35;35.24
33191;BME280;19554;42.652;23.364;2022-09-29T13:15:33;93820.59;;;24.46;36.11
33191;BME280;19554;42.652;23.364;2022-09-29T13:23:57;93825.34;;;24.06;36.48
33191;BME280;19554;42.652;23.364;2022-09-29T13:26:49;93827.72;;;23.93;36.62
33191;BME280;19554;42.652;23.364;2022-09-29T13:29:25;93824.59;;;23.80;37.33
33191;BME280;19554;42.652;23.364;2022-09-29T13:31:53;93784.88;;;23.44;37.57
33191;BME280;19554;42.652;23.364;2022-09-29T13:34:32;93850.28;;;23.69;37.55
33191;BME280;19554;42.652;23.364;2022-09-29T13:37:18;93832.38;;;23.57;37.63
33191;BME280;19554;42.652;23.364;2022-09-29T13:40:06;93836.63;;;23.51;38.39
33191;BME280;19554;42.652;23.364;2022-09-29T13:50:55;93848.63;;;23.07;40.24
33191;BME280;19554;42.652;23.364;2022-09-29T13:55:54;93854.00;;;22.89;41.39
33191;BME280;19554;42.652;23.364;2022-09-29T13:58:24;93787.78;;;22.45;41.86
33191;BME280;19554;42.652;23.364;2022-09-29T14:00:51;93825.22;;;22.77;41.71
33191;BME280;19554;42.652;23.364;2022-09-29T14:03:32;93847.06;;;22.95;42.19
33191;BME280;19554;42.652;23.364;2022-09-29T14:08:27;93854.00;;;22.89;42.26
33191;BME280;19554;42.652;23.364;2022-09-29T14:11:36;93847.44;;;22.93;42.07
33191;BME280;19554;42.652;23.364;2022-09-29T14:14:16;93817.41;;;22.68;42.34
33191;BME280;19554;42.652;23.364;2022-09-29T14:19:45;93860.22;;;22.89;42.97
33191;BME280;19554;42.652;23.364;2022-09-29T14:27:36;93883.50;;;22.76;42.63
33191;BME280;19554;42.652;23.364;2022-09-29T14:37:43;93968.16;;;22.09;53.77
33191;BME280;19554;42.652;23.364;2022-09-29T14:40:09;93973.09;;;21.99;55.53
33191;BME280;19554;42.652;23.364;2022-09-29T14:43:38;93978.03;;;21.87;58.20
33191;BME280;19554;42.652;23.364;2022-09-29T14:51:56;93975.09;;;21.28;61.40
33191;BME280;19554;42.652;23.364;2022-09-29T14:57:39;93977.00;;;21.24;63.95
33191;BME280;19554;42.652;23.364;2022-09-29T15:00:20;93951.97;;;21.08;64.15
33191;BME280;19554;42.652;23.364;2022-09-29T15:02:53;93966.13;;;21.24;63.95
33191;BME280;19554;42.652;23.364;2022-09-29T15:05:29;93963.00;;;21.22;65.40
33191;BME280;19554;42.652;23.364;2022-09-29T15:07:55;93955.34;;;20.97;65.92
33191;BME280;19554;42.652;23.364;2022-09-29T15:10:31;93952.47;;;20.83;68.71
33191;BME280;19554;42.652;23.364;2022-09-29T15:13:16;93945.06;;;20.80;68.77
33191;BME280;19554;42.652;23.364;2022-09-29T15:15:46;93943.47;;;20.49;68.80
33191;BME280;19554;42.652;23.364;2022-09-29T15:21:16;93947.84;;;20.87;68.03
33191;BME280;19554;42.652;23.364;2022-09-29T15:23:59;93947.13;;;20.90;66.82
33191;BME280;19554;42.652;23.364;2022-09-29T15:26:31;93950.66;;;20.94;66.35
33191;BME280;19554;42.652;23.364;2022-09-29T15:28:58;93955.00;;;21.02;66.77
33191;BME280;19554;42.652;23.364;2022-09-29T15:31:30;93956.09;;;20.94;67.57
33191;BME280;19554;42.652;23.364;2022-09-29T15:33:58;93946.69;;;20.88;66.45
33191;BME280;19554;42.652;23.364;2022-09-29T15:36:25;93953.19;;;20.80;65.26
33191;BME280;19554;42.652;23.364;2022-09-29T15:39:05;93980.38;;;20.83;66.40
33191;BME280;19554;42.652;23.364;2022-09-29T15:41:32;93971.28;;;20.69;68.41
33191;BME280;19554;42.652;23.364;2022-09-29T15:44:13;93979.50;;;20.76;70.30
33191;BME280;19554;42.652;23.364;2022-09-29T15:46:55;93982.91;;;20.46;71.53
33191;BME280;19554;42.652;23.364;2022-09-29T15:49:23;93984.38;;;20.40;71.90
33191;BME280;19554;42.652;23.364;2022-09-29T15:54:30;93988.47;;;20.04;71.89
33191;BME280;19554;42.652;23.364;2022-09-29T15:56:58;93933.16;;;19.82;70.08
33191;BME280;19554;42.652;23.364;2022-09-29T15:59:48;93980.19;;;20.20;68.70
33191;BME280;19554;42.652;23.364;2022-09-29T16:02:37;93968.69;;;20.26;67.33
33191;BME280;19554;42.652;23.364;2022-09-29T16:05:09;93980.06;;;20.35;67.96
33191;BME280;19554;42.652;23.364;2022-09-29T16:07:52;93984.81;;;20.42;68.99
33191;BME280;19554;42.652;23.364;2022-09-29T16:10:31;93990.53;;;20.37;70.24
33191;BME280;19554;42.652;23.364;2022-09-29T16:13:01;93996.00;;;20.41;70.10
33191;BME280;19554;42.652;23.364;2022-09-29T16:15:41;93996.81;;;20.41;69.41
33191;BME280;19554;42.652;23.364;2022-09-29T16:18:19;94004.50;;;20.39;69.04
33191;BME280;19554;42.652;23.364;2022-09-29T16:20:47;94011.47;;;20.40;68.65
33191;BME280;19554;42.652;23.364;2022-09-29T16:23:20;94016.50;;;20.38;68.53
33191;BME280;19554;42.652;23.364;2022-09-29T16:28:34;94025.47;;;20.42;68.09
33191;BME280;19554;42.652;23.364;2022-09-29T16:31:17;94001.69;;;20.32;69.02
33191;BME280;19554;42.652;23.364;2022-09-29T16:33:46;94042.63;;;20.50;69.09